sensor_id;sensor_type;location;lat;lon;timestamp;P1;durP1;ratioP1;P2;durP2;ratioP2
55539;SDS011;41384;51.418;7.286;2022-09-17T00:00:47;5.15;;;1.40;;
55539;SDS011;41384;51.418;7.286;2022-09-17T00:03:14;7.32;;;1.35;;
55539;SDS011;41384;51.418;7.286;2022-09-17T00:05:40;5.82;;;1.70;;
55539;SDS011;41384;51.418;7.286;2022-09-17T00:08:06;10.88;;;1.80;;
55539;SDS011;41384;51.418;7.286;2022-09-17T00:10:37;5.20;;;1.48;;
55539;SDS011;41384;51.418;7.286;2022-09-17T00:13:04;6.50;;;1.60;;
55539;SDS011;41384;51.418;7.286;2022-09-17T00:15:30;4.72;;;1.40;;
55539;SDS011;41384;51.418;7.286;2022-09-17T00:17:56;7.13;;;1.58;;
55539;SDS011;41384;51.418;7.286;2022-09-17T00:20:22;3.90;;;1.15;;
55539;SDS011;41384;51.418;7.286;2022-09-17T00:22:48;6.43;;;1.40;;
55539;SDS011;41384;51.418;7.286;2022-09-17T00:25:14;3.95;;;1.70;;
55539;SDS011;41384;51.418;7.286;2022-09-17T00:27:40;7.30;;;2.00;;
55539;SDS011;41384;51.418;7.286;2022-09-17T00:30:06;4.45;;;1.27;;
55539;SDS011;41384;51.418;7.286;2022-09-17T00:32:32;6.38;;;1.30;;
55539;SDS011;41384;51.418;7.286;2022-09-17T00:34:57;6.55;;;1.85;;
55539;SDS011;41384;51.418;7.286;2022-09-17T00:37:22;5.78;;;1.35;;
55539;SDS011;41384;51.418;7.286;2022-09-17T00:39:47;4.80;;;1.33;;
55539;SDS011;41384;51.418;7.286;2022-09-17T00:42:14;6.63;;;1.50;;
55539;SDS011;41384;51.418;7.286;2022-09-17T00:44:48;8.60;;;1.90;;
55539;SDS011;41384;51.418;7.286;2022-09-17T00:47:37;7.53;;;1.58;;
55539;SDS011;41384;51.418;7.286;2022-09-17T00:52:38;2.75;;;1.38;;
55539;SDS011;41384;51.418;7.286;2022-09-17T00:57:37;7.97;;;1.48;;
55539;SDS011;41384;51.418;7.286;2022-09-17T01:00:05;8.73;;;1.77;;
55539;SDS011;41384;51.418;7.286;2022-09-17T01:02:33;6.85;;;1.80;;
55539;SDS011;41384;51.418;7.286;2022-09-17T01:04:58;6.63;;;1.73;;
55539;SDS011;41384;51.418;7.286;2022-09-17T01:07:34;4.07;;;2.00;;
55539;SDS011;41384;51.418;7.286;2022-09-17T01:15:53;5.22;;;1.85;;
55539;SDS011;41384;51.418;7.286;2022-09-17T01:18:35;7.35;;;1.90;;
55539;SDS011;41384;51.418;7.286;2022-09-17T01:30:13;4.07;;;2.08;;
55539;SDS011;41384;51.418;7.286;2022-09-17T01:32:57;8.20;;;2.70;;
55539;SDS011;41384;51.418;7.286;2022-09-17T01:35:52;5.53;;;2.55;;
55539;SDS011;41384;51.418;7.286;2022-09-17T01:46:45;7.18;;;2.65;;
55539;SDS011;41384;51.418;7.286;2022-09-17T01:49:15;7.38;;;3.13;;
55539;SDS011;41384;51.418;7.286;2022-09-17T01:51:43;7.30;;;2.83;;
55539;SDS011;41384;51.418;7.286;2022-09-17T01:54:14;8.98;;;3.40;;
55539;SDS011;41384;51.418;7.286;2022-09-17T01:56:51;6.78;;;2.70;;
55539;SDS011;41384;51.418;7.286;2022-09-17T02:02:14;12.52;;;3.30;;
55539;SDS011;41384;51.418;7.286;2022-09-17T02:04:50;9.00;;;3.42;;
55539;SDS011;41384;51.418;7.286;2022-09-17T02:07:21;8.48;;;3.35;;
55539;SDS011;41384;51.418;7.286;2022-09-17T02:10:04;8.60;;;2.90;;
55539;SDS011;41384;51.418;7.286;2022-09-17T02:12:34;8.55;;;3.72;;
55539;SDS011;41384;51.418;7.286;2022-09-17T02:15:05;10.02;;;3.03;;
55539;SDS011;41384;51.418;7.286;2022-09-17T02:17:45;5.18;;;2.60;;
55539;SDS011;41384;51.418;7.286;2022-09-17T02:20:15;8.95;;;3.50;;
55539;SDS011;41384;51.418;7.286;2022-09-17T02:22:46;9.20;;;3.08;;
55539;SDS011;41384;51.418;7.286;2022-09-17T02:25:17;8.77;;;3.30;;
55539;SDS011;41384;51.418;7.286;2022-09-17T02:28:01;9.07;;;2.90;;
55539;SDS011;41384;51.418;7.286;2022-09-17T02:30:27;6.95;;;3.15;;
55539;SDS011;41384;51.418;7.286;2022-09-17T02:32:54;10.13;;;2.75;;
55539;SDS011;41384;51.418;7.286;2022-09-17T02:35:20;11.00;;;2.63;;
55539;SDS011;41384;51.418;7.286;2022-09-17T02:37:46;9.45;;;2.60;;
55539;SDS011;41384;51.418;7.286;2022-09-17T02:40:12;8.52;;;2.45;;
55539;SDS011;41384;51.418;7.286;2022-09-17T02:48:47;8.98;;;2.15;;
55539;SDS011;41384;51.418;7.286;2022-09-17T02:51:22;6.72;;;2.17;;
55539;SDS011;41384;51.418;7.286;2022-09-17T02:53:55;6.88;;;2.22;;
55539;SDS011;41384;51.418;7.286;2022-09-17T02:56:41;8.20;;;2.30;;
55539;SDS011;41384;51.418;7.286;2022-09-17T02:59:14;9.27;;;2.13;;
55539;SDS011;41384;51.418;7.286;2022-09-17T03:04:16;6.72;;;2.30;;
55539;SDS011;41384;51.418;7.286;2022-09-17T03:06:45;8.40;;;2.05;;
55539;SDS011;41384;51.418;7.286;2022-09-17T03:09:11;11.50;;;2.45;;
55539;SDS011;41384;51.418;7.286;2022-09-17T03:11:38;8.25;;;1.65;;
55539;SDS011;41384;51.418;7.286;2022-09-17T03:14:03;12.88;;;2.13;;
55539;SDS011;41384;51.418;7.286;2022-09-17T03:16:28;10.77;;;2.17;;
55539;SDS011;41384;51.418;7.286;2022-09-17T03:18:53;7.57;;;1.88;;
55539;SDS011;41384;51.418;7.286;2022-09-17T03:21:19;8.75;;;2.30;;
55539;SDS011;41384;51.418;7.286;2022-09-17T03:23:45;7.43;;;1.75;;
55539;SDS011;41384;51.418;7.286;2022-09-17T03:26:10;8.57;;;2.00;;
55539;SDS011;41384;51.418;7.286;2022-09-17T03:28:36;7.65;;;2.05;;
55539;SDS011;41384;51.418;7.286;2022-09-17T03:31:01;6.75;;;1.75;;
55539;SDS011;41384;51.418;7.286;2022-09-17T03:33:26;6.30;;;1.83;;
55539;SDS011;41384;51.418;7.286;2022-09-17T03:35:52;7.07;;;1.48;;
55539;SDS011;41384;51.418;7.286;2022-09-17T03:38:17;6.80;;;2.15;;
55539;SDS011;41384;51.418;7.286;2022-09-17T03:40:42;5.90;;;2.00;;
55539;SDS011;41384;51.418;7.286;2022-09-17T03:43:08;6.28;;;2.20;;
55539;SDS011;41384;51.418;7.286;2022-09-17T03:45:33;8.95;;;1.88;;
55539;SDS011;41384;51.418;7.286;2022-09-17T03:47:59;7.68;;;1.95;;
55539;SDS011;41384;51.418;7.286;2022-09-17T03:50:24;7.82;;;2.20;;
55539;SDS011;41384;51.418;7.286;2022-09-17T03:52:50;13.02;;;1.95;;
55539;SDS011;41384;51.418;7.286;2022-09-17T03:55:15;8.05;;;1.80;;
55539;SDS011;41384;51.418;7.286;2022-09-17T03:57:41;10.18;;;1.92;;
55539;SDS011;41384;51.418;7.286;2022-09-17T04:00:06;5.72;;;1.83;;
55539;SDS011;41384;51.418;7.286;2022-09-17T04:02:32;8.45;;;2.00;;
55539;SDS011;41384;51.418;7.286;2022-09-17T04:04:58;8.30;;;1.80;;
55539;SDS011;41384;51.418;7.286;2022-09-17T04:07:24;11.55;;;2.00;;
55539;SDS011;41384;51.418;7.286;2022-09-17T04:09:49;9.50;;;2.13;;
55539;SDS011;41384;51.418;7.286;2022-09-17T04:12:14;7.57;;;1.80;;
55539;SDS011;41384;51.418;7.286;2022-09-17T04:14:39;5.07;;;1.35;;
55539;SDS011;41384;51.418;7.286;2022-09-17T04:17:05;10.80;;;1.63;;
55539;SDS011;41384;51.418;7.286;2022-09-17T04:19:30;11.50;;;1.90;;
55539;SDS011;41384;51.418;7.286;2022-09-17T04:21:55;6.10;;;1.70;;
55539;SDS011;41384;51.418;7.286;2022-09-17T04:24:20;9.10;;;2.33;;
55539;SDS011;41384;51.418;7.286;2022-09-17T04:26:46;7.00;;;1.70;;
55539;SDS011;41384;51.418;7.286;2022-09-17T04:29:11;6.90;;;2.03;;
55539;SDS011;41384;51.418;7.286;2022-09-17T04:31:36;10.93;;;2.03;;
55539;SDS011;41384;51.418;7.286;2022-09-17T04:34:02;8.85;;;1.58;;
55539;SDS011;41384;51.418;7.286;2022-09-17T04:36:27;5.85;;;1.88;;
55539;SDS011;41384;51.418;7.286;2022-09-17T04:38:52;5.68;;;1.52;;
55539;SDS011;41384;51.418;7.286;2022-09-17T04:41:18;6.90;;;1.75;;
55539;SDS011;41384;51.418;7.286;2022-09-17T04:43:43;9.25;;;2.00;;
55539;SDS011;41384;51.418;7.286;2022-09-17T04:46:08;5.80;;;1.50;;
55539;SDS011;41384;51.418;7.286;2022-09-17T04:48:34;6.28;;;1.40;;
55539;SDS011;41384;51.418;7.286;2022-09-17T04:50:59;10.48;;;1.88;;
55539;SDS011;41384;51.418;7.286;2022-09-17T04:53:24;6.43;;;1.73;;
55539;SDS011;41384;51.418;7.286;2022-09-17T04:55:49;7.40;;;1.55;;
55539;SDS011;41384;51.418;7.286;2022-09-17T04:58:15;8.90;;;2.60;;
55539;SDS011;41384;51.418;7.286;2022-09-17T05:00:40;5.82;;;1.52;;
55539;SDS011;41384;51.418;7.286;2022-09-17T05:03:06;6.18;;;1.58;;
55539;SDS011;41384;51.418;7.286;2022-09-17T05:05:32;6.93;;;1.88;;
55539;SDS011;41384;51.418;7.286;2022-09-17T05:07:57;11.27;;;1.75;;
55539;SDS011;41384;51.418;7.286;2022-09-17T05:10:23;7.55;;;1.52;;
55539;SDS011;41384;51.418;7.286;2022-09-17T05:12:50;7.13;;;1.70;;
55539;SDS011;41384;51.418;7.286;2022-09-17T05:15:16;11.23;;;1.60;;
55539;SDS011;41384;51.418;7.286;2022-09-17T05:17:42;7.78;;;1.67;;
55539;SDS011;41384;51.418;7.286;2022-09-17T05:20:07;5.78;;;1.60;;
55539;SDS011;41384;51.418;7.286;2022-09-17T05:22:33;5.82;;;1.42;;
55539;SDS011;41384;51.418;7.286;2022-09-17T05:24:59;8.57;;;1.83;;
55539;SDS011;41384;51.418;7.286;2022-09-17T05:27:24;8.45;;;1.70;;
55539;SDS011;41384;51.418;7.286;2022-09-17T05:29:49;5.45;;;1.38;;
55539;SDS011;41384;51.418;7.286;2022-09-17T05:32:15;6.18;;;1.20;;
55539;SDS011;41384;51.418;7.286;2022-09-17T05:34:40;6.82;;;2.15;;
55539;SDS011;41384;51.418;7.286;2022-09-17T05:37:08;9.07;;;1.80;;
55539;SDS011;41384;51.418;7.286;2022-09-17T05:39:35;4.55;;;1.38;;
55539;SDS011;41384;51.418;7.286;2022-09-17T05:42:00;4.32;;;1.52;;
55539;SDS011;41384;51.418;7.286;2022-09-17T05:44:25;6.63;;;2.28;;
55539;SDS011;41384;51.418;7.286;2022-09-17T05:46:51;5.82;;;1.50;;
55539;SDS011;41384;51.418;7.286;2022-09-17T05:49:16;12.15;;;1.50;;
55539;SDS011;41384;51.418;7.286;2022-09-17T05:51:42;5.10;;;1.20;;
55539;SDS011;41384;51.418;7.286;2022-09-17T05:54:07;2.97;;;1.13;;
55539;SDS011;41384;51.418;7.286;2022-09-17T05:56:33;6.75;;;1.25;;
55539;SDS011;41384;51.418;7.286;2022-09-17T05:58:58;5.70;;;1.33;;
55539;SDS011;41384;51.418;7.286;2022-09-17T06:01:24;10.10;;;1.67;;
55539;SDS011;41384;51.418;7.286;2022-09-17T06:03:49;6.03;;;1.38;;
55539;SDS011;41384;51.418;7.286;2022-09-17T06:06:15;8.43;;;1.52;;
55539;SDS011;41384;51.418;7.286;2022-09-17T06:08:40;7.75;;;1.52;;
55539;SDS011;41384;51.418;7.286;2022-09-17T06:11:06;11.00;;;1.98;;
55539;SDS011;41384;51.418;7.286;2022-09-17T06:13:32;7.35;;;1.48;;
55539;SDS011;41384;51.418;7.286;2022-09-17T06:15:58;8.85;;;1.50;;
55539;SDS011;41384;51.418;7.286;2022-09-17T06:18:25;9.75;;;1.85;;
55539;SDS011;41384;51.418;7.286;2022-09-17T06:20:54;6.97;;;1.45;;
55539;SDS011;41384;51.418;7.286;2022-09-17T06:23:21;7.13;;;1.60;;
55539;SDS011;41384;51.418;7.286;2022-09-17T06:25:51;5.53;;;1.65;;
55539;SDS011;41384;51.418;7.286;2022-09-17T06:28:18;7.10;;;2.03;;
55539;SDS011;41384;51.418;7.286;2022-09-17T06:30:43;7.32;;;1.38;;
55539;SDS011;41384;51.418;7.286;2022-09-17T06:33:09;4.20;;;1.20;;
55539;SDS011;41384;51.418;7.286;2022-09-17T06:35:34;9.00;;;1.67;;
55539;SDS011;41384;51.418;7.286;2022-09-17T06:37:59;8.20;;;1.52;;
55539;SDS011;41384;51.418;7.286;2022-09-17T06:40:24;8.60;;;1.38;;
55539;SDS011;41384;51.418;7.286;2022-09-17T06:42:50;6.32;;;1.50;;
55539;SDS011;41384;51.418;7.286;2022-09-17T06:45:21;10.93;;;1.98;;
55539;SDS011;41384;51.418;7.286;2022-09-17T06:47:46;6.45;;;1.90;;
55539;SDS011;41384;51.418;7.286;2022-09-17T06:50:11;4.93;;;1.83;;
55539;SDS011;41384;51.418;7.286;2022-09-17T06:52:37;9.70;;;1.58;;
55539;SDS011;41384;51.418;7.286;2022-09-17T06:55:02;6.10;;;1.77;;
55539;SDS011;41384;51.418;7.286;2022-09-17T06:57:28;8.95;;;2.10;;
55539;SDS011;41384;51.418;7.286;2022-09-17T06:59:53;8.23;;;1.48;;
55539;SDS011;41384;51.418;7.286;2022-09-17T07:02:18;6.13;;;1.63;;
55539;SDS011;41384;51.418;7.286;2022-09-17T07:04:44;6.63;;;2.33;;
55539;SDS011;41384;51.418;7.286;2022-09-17T07:07:09;6.50;;;1.60;;
55539;SDS011;41384;51.418;7.286;2022-09-17T07:09:35;7.88;;;1.27;;
55539;SDS011;41384;51.418;7.286;2022-09-17T07:12:00;7.93;;;1.60;;
55539;SDS011;41384;51.418;7.286;2022-09-17T07:14:25;6.32;;;1.67;;
55539;SDS011;41384;51.418;7.286;2022-09-17T07:16:51;8.77;;;1.50;;
55539;SDS011;41384;51.418;7.286;2022-09-17T07:19:17;6.65;;;1.65;;
55539;SDS011;41384;51.418;7.286;2022-09-17T07:21:42;8.43;;;2.25;;
55539;SDS011;41384;51.418;7.286;2022-09-17T07:24:07;10.63;;;1.45;;
55539;SDS011;41384;51.418;7.286;2022-09-17T07:26:32;8.45;;;1.50;;
55539;SDS011;41384;51.418;7.286;2022-09-17T07:28:58;6.18;;;1.45;;
55539;SDS011;41384;51.418;7.286;2022-09-17T07:31:23;6.70;;;1.70;;
55539;SDS011;41384;51.418;7.286;2022-09-17T07:33:48;8.35;;;1.80;;
55539;SDS011;41384;51.418;7.286;2022-09-17T07:36:14;8.60;;;1.33;;
55539;SDS011;41384;51.418;7.286;2022-09-17T07:38:41;5.80;;;1.42;;
55539;SDS011;41384;51.418;7.286;2022-09-17T07:44:29;6.43;;;1.40;;
55539;SDS011;41384;51.418;7.286;2022-09-17T07:46:54;8.68;;;1.95;;
55539;SDS011;41384;51.418;7.286;2022-09-17T07:49:20;5.35;;;2.03;;
55539;SDS011;41384;51.418;7.286;2022-09-17T07:51:45;8.25;;;1.73;;
55539;SDS011;41384;51.418;7.286;2022-09-17T07:54:10;5.20;;;1.25;;
55539;SDS011;41384;51.418;7.286;2022-09-17T07:56:36;8.20;;;1.60;;
55539;SDS011;41384;51.418;7.286;2022-09-17T07:59:01;5.75;;;1.60;;
55539;SDS011;41384;51.418;7.286;2022-09-17T08:01:27;7.55;;;1.45;;
55539;SDS011;41384;51.418;7.286;2022-09-17T08:03:53;10.25;;;1.70;;
55539;SDS011;41384;51.418;7.286;2022-09-17T08:06:19;7.53;;;1.48;;
55539;SDS011;41384;51.418;7.286;2022-09-17T08:08:46;5.70;;;1.05;;
55539;SDS011;41384;51.418;7.286;2022-09-17T08:11:13;12.50;;;1.75;;
55539;SDS011;41384;51.418;7.286;2022-09-17T08:13:40;3.92;;;1.33;;
55539;SDS011;41384;51.418;7.286;2022-09-17T08:16:06;6.22;;;1.17;;
55539;SDS011;41384;51.418;7.286;2022-09-17T08:18:34;6.78;;;1.50;;
55539;SDS011;41384;51.418;7.286;2022-09-17T08:21:00;6.90;;;1.35;;
55539;SDS011;41384;51.418;7.286;2022-09-17T08:23:28;6.60;;;1.33;;
55539;SDS011;41384;51.418;7.286;2022-09-17T08:25:55;5.50;;;1.23;;
55539;SDS011;41384;51.418;7.286;2022-09-17T08:28:22;4.88;;;1.20;;
55539;SDS011;41384;51.418;7.286;2022-09-17T08:30:49;6.13;;;1.83;;
55539;SDS011;41384;51.418;7.286;2022-09-17T08:33:15;5.95;;;1.20;;
55539;SDS011;41384;51.418;7.286;2022-09-17T08:35:41;10.40;;;1.38;;
55539;SDS011;41384;51.418;7.286;2022-09-17T08:38:06;4.05;;;1.00;;
55539;SDS011;41384;51.418;7.286;2022-09-17T08:40:33;4.07;;;1.00;;
55539;SDS011;41384;51.418;7.286;2022-09-17T08:43:07;7.75;;;1.45;;
55539;SDS011;41384;51.418;7.286;2022-09-17T08:45:40;9.95;;;1.17;;
55539;SDS011;41384;51.418;7.286;2022-09-17T08:48:07;6.63;;;0.98;;
55539;SDS011;41384;51.418;7.286;2022-09-17T08:50:37;5.30;;;0.77;;
55539;SDS011;41384;51.418;7.286;2022-09-17T08:55:45;2.38;;;0.73;;
55539;SDS011;41384;51.418;7.286;2022-09-17T09:03:57;3.33;;;0.80;;
55539;SDS011;41384;51.418;7.286;2022-09-17T09:06:33;4.03;;;1.00;;
55539;SDS011;41384;51.418;7.286;2022-09-17T09:09:03;6.45;;;0.85;;
55539;SDS011;41384;51.418;7.286;2022-09-17T09:11:34;3.65;;;0.88;;
55539;SDS011;41384;51.418;7.286;2022-09-17T09:14:03;3.45;;;0.90;;
55539;SDS011;41384;51.418;7.286;2022-09-17T09:16:35;5.03;;;1.15;;
55539;SDS011;41384;51.418;7.286;2022-09-17T09:27:45;3.42;;;0.90;;
55539;SDS011;41384;51.418;7.286;2022-09-17T09:30:20;4.50;;;0.90;;
55539;SDS011;41384;51.418;7.286;2022-09-17T09:32:54;1.55;;;0.70;;
55539;SDS011;41384;51.418;7.286;2022-09-17T09:35:27;1.33;;;0.70;;
55539;SDS011;41384;51.418;7.286;2022-09-17T09:37:56;3.63;;;0.93;;
55539;SDS011;41384;51.418;7.286;2022-09-17T09:43:21;2.47;;;0.43;;
55539;SDS011;41384;51.418;7.286;2022-09-17T09:46:02;2.03;;;0.52;;
55539;SDS011;41384;51.418;7.286;2022-09-17T09:57:45;2.15;;;1.05;;
55539;SDS011;41384;51.418;7.286;2022-09-17T10:06:04;1.88;;;0.47;;
55539;SDS011;41384;51.418;7.286;2022-09-17T10:08:33;3.03;;;0.80;;
55539;SDS011;41384;51.418;7.286;2022-09-17T10:11:01;2.78;;;0.55;;
55539;SDS011;41384;51.418;7.286;2022-09-17T10:13:47;2.67;;;0.40;;
55539;SDS011;41384;51.418;7.286;2022-09-17T10:18:44;0.95;;;0.30;;
55539;SDS011;41384;51.418;7.286;2022-09-17T10:21:21;2.15;;;0.50;;
55539;SDS011;41384;51.418;7.286;2022-09-17T10:24:20;3.63;;;0.60;;
55539;SDS011;41384;51.418;7.286;2022-09-17T10:26:48;3.15;;;0.63;;
55539;SDS011;41384;51.418;7.286;2022-09-17T10:29:15;2.38;;;0.43;;
55539;SDS011;41384;51.418;7.286;2022-09-17T10:31:50;2.83;;;0.70;;
55539;SDS011;41384;51.418;7.286;2022-09-17T10:34:18;2.95;;;0.52;;
55539;SDS011;41384;51.418;7.286;2022-09-17T10:36:46;5.10;;;0.60;;
55539;SDS011;41384;51.418;7.286;2022-09-17T10:41:52;1.90;;;0.30;;
55539;SDS011;41384;51.418;7.286;2022-09-17T10:44:22;2.15;;;0.63;;
55539;SDS011;41384;51.418;7.286;2022-09-17T10:46:49;3.17;;;0.55;;
55539;SDS011;41384;51.418;7.286;2022-09-17T10:51:40;2.75;;;0.57;;
55539;SDS011;41384;51.418;7.286;2022-09-17T10:54:11;2.13;;;0.60;;
55539;SDS011;41384;51.418;7.286;2022-09-17T10:56:49;2.47;;;0.30;;
55539;SDS011;41384;51.418;7.286;2022-09-17T11:04:53;2.88;;;0.65;;
55539;SDS011;41384;51.418;7.286;2022-09-17T11:10:35;1.92;;;0.40;;
55539;SDS011;41384;51.418;7.286;2022-09-17T11:13:15;1.15;;;0.52;;
55539;SDS011;41384;51.418;7.286;2022-09-17T11:15:55;2.88;;;0.55;;
55539;SDS011;41384;51.418;7.286;2022-09-17T11:18:40;0.93;;;0.30;;
55539;SDS011;41384;51.418;7.286;2022-09-17T11:26:48;2.65;;;0.50;;
55539;SDS011;41384;51.418;7.286;2022-09-17T11:32:31;0.88;;;0.50;;
55539;SDS011;41384;51.418;7.286;2022-09-17T11:35:15;1.83;;;0.38;;
55539;SDS011;41384;51.418;7.286;2022-09-17T11:38:13;1.88;;;0.65;;
55539;SDS011;41384;51.418;7.286;2022-09-17T11:43:19;0.40;;;0.38;;
55539;SDS011;41384;51.418;7.286;2022-09-17T11:48:34;0.68;;;0.20;;
55539;SDS011;41384;51.418;7.286;2022-09-17T11:51:06;0.32;;;0.30;;
55539;SDS011;41384;51.418;7.286;2022-09-17T11:53:45;1.05;;;0.30;;
55539;SDS011;41384;51.418;7.286;2022-09-17T11:56:22;0.55;;;0.40;;
55539;SDS011;41384;51.418;7.286;2022-09-17T12:04:26;0.35;;;0.30;;
55539;SDS011;41384;51.418;7.286;2022-09-17T12:07:03;3.40;;;0.30;;
55539;SDS011;41384;51.418;7.286;2022-09-17T12:09:31;0.40;;;0.35;;
55539;SDS011;41384;51.418;7.286;2022-09-17T12:12:09;2.58;;;0.50;;
55539;SDS011;41384;51.418;7.286;2022-09-17T12:17:14;0.75;;;0.32;;
55539;SDS011;41384;51.418;7.286;2022-09-17T12:19:46;0.68;;;0.40;;
55539;SDS011;41384;51.418;7.286;2022-09-17T12:22:22;1.17;;;0.30;;
55539;SDS011;41384;51.418;7.286;2022-09-17T12:24:51;2.22;;;0.40;;
55539;SDS011;41384;51.418;7.286;2022-09-17T12:27:37;1.65;;;0.50;;
55539;SDS011;41384;51.418;7.286;2022-09-17T12:30:12;2.75;;;0.43;;
55539;SDS011;41384;51.418;7.286;2022-09-17T13:01:54;1.98;;;0.60;;
55539;SDS011;41384;51.418;7.286;2022-09-17T13:10:10;1.20;;;0.43;;
55539;SDS011;41384;51.418;7.286;2022-09-17T13:12:59;1.98;;;0.57;;
55539;SDS011;41384;51.418;7.286;2022-09-17T13:15:48;3.35;;;0.68;;
55539;SDS011;41384;51.418;7.286;2022-09-17T13:23:30;7.20;;;1.30;;
55539;SDS011;41384;51.418;7.286;2022-09-17T13:26:02;16.52;;;2.53;;
55539;SDS011;41384;51.418;7.286;2022-09-17T13:28:37;2.28;;;0.50;;
55539;SDS011;41384;51.418;7.286;2022-09-17T13:31:04;11.07;;;1.60;;
55539;SDS011;41384;51.418;7.286;2022-09-17T13:39:08;5.30;;;0.95;;
55539;SDS011;41384;51.418;7.286;2022-09-17T13:41:36;2.15;;;0.60;;
55539;SDS011;41384;51.418;7.286;2022-09-17T13:44:04;2.15;;;0.70;;
55539;SDS011;41384;51.418;7.286;2022-09-17T13:46:32;1.27;;;0.38;;
55539;SDS011;41384;51.418;7.286;2022-09-17T13:49:01;1.23;;;0.65;;
55539;SDS011;41384;51.418;7.286;2022-09-17T13:53:59;14.65;;;1.58;;
55539;SDS011;41384;51.418;7.286;2022-09-17T13:56:31;3.58;;;0.70;;
55539;SDS011;41384;51.418;7.286;2022-09-17T13:59:09;2.40;;;0.57;;
55539;SDS011;41384;51.418;7.286;2022-09-17T14:01:54;1.73;;;0.50;;
55539;SDS011;41384;51.418;7.286;2022-09-17T14:09:51;0.70;;;0.35;;
55539;SDS011;41384;51.418;7.286;2022-09-17T14:18:00;2.58;;;0.60;;
55539;SDS011;41384;51.418;7.286;2022-09-17T14:20:28;0.47;;;0.30;;
55539;SDS011;41384;51.418;7.286;2022-09-17T14:22:58;2.85;;;0.47;;
55539;SDS011;41384;51.418;7.286;2022-09-17T14:25:31;0.98;;;0.20;;
55539;SDS011;41384;51.418;7.286;2022-09-17T14:28:07;5.32;;;0.43;;
55539;SDS011;41384;51.418;7.286;2022-09-17T14:30:42;3.22;;;0.50;;
55539;SDS011;41384;51.418;7.286;2022-09-17T14:33:14;2.08;;;0.50;;
55539;SDS011;41384;51.418;7.286;2022-09-17T14:35:46;2.80;;;0.60;;
55539;SDS011;41384;51.418;7.286;2022-09-17T14:38:24;2.45;;;0.52;;
55539;SDS011;41384;51.418;7.286;2022-09-17T14:41:03;0.85;;;0.43;;
55539;SDS011;41384;51.418;7.286;2022-09-17T14:43:38;3.22;;;0.70;;
55539;SDS011;41384;51.418;7.286;2022-09-17T14:46:05;2.47;;;0.70;;
55539;SDS011;41384;51.418;7.286;2022-09-17T14:48:33;1.45;;;0.45;;
55539;SDS011;41384;51.418;7.286;2022-09-17T14:51:10;5.03;;;1.80;;
55539;SDS011;41384;51.418;7.286;2022-09-17T14:53:47;2.65;;;0.70;;
55539;SDS011;41384;51.418;7.286;2022-09-17T14:56:15;2.17;;;0.70;;
55539;SDS011;41384;51.418;7.286;2022-09-17T14:58:47;3.13;;;0.80;;
55539;SDS011;41384;51.418;7.286;2022-09-17T15:03:47;1.75;;;0.70;;
55539;SDS011;41384;51.418;7.286;2022-09-17T15:06:19;1.33;;;0.63;;
55539;SDS011;41384;51.418;7.286;2022-09-17T15:08:47;1.73;;;0.75;;
55539;SDS011;41384;51.418;7.286;2022-09-17T15:11:13;1.95;;;0.70;;
55539;SDS011;41384;51.418;7.286;2022-09-17T15:13:51;1.23;;;0.90;;
55539;SDS011;41384;51.418;7.286;2022-09-17T15:16:23;3.95;;;0.90;;
55539;SDS011;41384;51.418;7.286;2022-09-17T15:18:53;2.58;;;0.70;;
55539;SDS011;41384;51.418;7.286;2022-09-17T15:23:55;1.95;;;0.55;;
55539;SDS011;41384;51.418;7.286;2022-09-17T15:26:27;3.78;;;0.80;;
55539;SDS011;41384;51.418;7.286;2022-09-17T15:28:58;7.53;;;0.93;;
55539;SDS011;41384;51.418;7.286;2022-09-17T15:31:26;3.90;;;0.60;;
55539;SDS011;41384;51.418;7.286;2022-09-17T15:33:52;3.08;;;0.93;;
55539;SDS011;41384;51.418;7.286;2022-09-17T15:36:21;2.80;;;0.77;;
55539;SDS011;41384;51.418;7.286;2022-09-17T15:38:49;2.28;;;0.70;;
55539;SDS011;41384;51.418;7.286;2022-09-17T15:41:34;3.40;;;0.90;;
55539;SDS011;41384;51.418;7.286;2022-09-17T15:44:10;3.33;;;0.82;;
55539;SDS011;41384;51.418;7.286;2022-09-17T15:46:41;4.47;;;0.93;;
55539;SDS011;41384;51.418;7.286;2022-09-17T15:52:17;2.70;;;0.50;;
55539;SDS011;41384;51.418;7.286;2022-09-17T15:54:57;1.63;;;0.60;;
55539;SDS011;41384;51.418;7.286;2022-09-17T15:57:23;3.38;;;0.47;;
55539;SDS011;41384;51.418;7.286;2022-09-17T15:59:51;5.47;;;0.60;;
55539;SDS011;41384;51.418;7.286;2022-09-17T16:02:27;4.38;;;0.80;;
55539;SDS011;41384;51.418;7.286;2022-09-17T16:07:49;2.03;;;0.77;;
55539;SDS011;41384;51.418;7.286;2022-09-17T16:10:15;4.60;;;0.55;;
55539;SDS011;41384;51.418;7.286;2022-09-17T16:12:40;3.22;;;0.70;;
55539;SDS011;41384;51.418;7.286;2022-09-17T16:15:06;4.40;;;0.57;;
55539;SDS011;41384;51.418;7.286;2022-09-17T16:22:48;1.85;;;0.77;;
55539;SDS011;41384;51.418;7.286;2022-09-17T16:25:15;3.45;;;0.50;;
55539;SDS011;41384;51.418;7.286;2022-09-17T16:27:51;1.38;;;0.50;;
55539;SDS011;41384;51.418;7.286;2022-09-17T16:30:20;4.60;;;0.73;;
55539;SDS011;41384;51.418;7.286;2022-09-17T16:32:47;2.33;;;0.52;;
55539;SDS011;41384;51.418;7.286;2022-09-17T16:35:14;2.70;;;0.82;;
55539;SDS011;41384;51.418;7.286;2022-09-17T16:37:40;0.95;;;0.60;;
55539;SDS011;41384;51.418;7.286;2022-09-17T16:40:08;1.65;;;0.50;;
55539;SDS011;41384;51.418;7.286;2022-09-17T16:42:35;1.90;;;0.65;;
55539;SDS011;41384;51.418;7.286;2022-09-17T16:45:01;1.70;;;0.50;;
55539;SDS011;41384;51.418;7.286;2022-09-17T16:47:27;2.05;;;0.40;;
55539;SDS011;41384;51.418;7.286;2022-09-17T16:49:55;2.28;;;0.68;;
55539;SDS011;41384;51.418;7.286;2022-09-17T16:52:20;2.95;;;0.50;;
55539;SDS011;41384;51.418;7.286;2022-09-17T16:54:45;3.20;;;0.80;;
55539;SDS011;41384;51.418;7.286;2022-09-17T16:57:11;3.25;;;0.73;;
55539;SDS011;41384;51.418;7.286;2022-09-17T16:59:36;2.60;;;1.25;;
55539;SDS011;41384;51.418;7.286;2022-09-17T17:02:01;4.50;;;1.42;;
55539;SDS011;41384;51.418;7.286;2022-09-17T17:04:26;3.85;;;0.70;;
55539;SDS011;41384;51.418;7.286;2022-09-17T17:06:52;2.67;;;0.55;;
55539;SDS011;41384;51.418;7.286;2022-09-17T17:09:17;4.03;;;1.17;;
55539;SDS011;41384;51.418;7.286;2022-09-17T17:11:42;2.75;;;1.13;;
55539;SDS011;41384;51.418;7.286;2022-09-17T17:14:08;3.72;;;0.93;;
55539;SDS011;41384;51.418;7.286;2022-09-17T17:16:33;2.88;;;0.90;;
55539;SDS011;41384;51.418;7.286;2022-09-17T17:18:59;4.43;;;1.30;;
55539;SDS011;41384;51.418;7.286;2022-09-17T17:21:24;4.63;;;1.52;;
55539;SDS011;41384;51.418;7.286;2022-09-17T17:23:49;6.25;;;2.15;;
55539;SDS011;41384;51.418;7.286;2022-09-17T17:26:15;7.13;;;2.40;;
55539;SDS011;41384;51.418;7.286;2022-09-17T17:28:41;4.30;;;1.60;;
55539;SDS011;41384;51.418;7.286;2022-09-17T17:31:07;2.65;;;1.65;;
55539;SDS011;41384;51.418;7.286;2022-09-17T17:33:32;3.05;;;0.93;;
55539;SDS011;41384;51.418;7.286;2022-09-17T17:35:59;2.67;;;0.80;;
55539;SDS011;41384;51.418;7.286;2022-09-17T17:38:25;4.10;;;1.17;;
55539;SDS011;41384;51.418;7.286;2022-09-17T17:41:00;5.80;;;0.93;;
55539;SDS011;41384;51.418;7.286;2022-09-17T17:43:28;4.10;;;1.13;;
55539;SDS011;41384;51.418;7.286;2022-09-17T17:45:54;3.60;;;1.10;;
55539;SDS011;41384;51.418;7.286;2022-09-17T17:48:19;2.92;;;0.95;;
55539;SDS011;41384;51.418;7.286;2022-09-17T17:50:44;1.95;;;0.80;;
55539;SDS011;41384;51.418;7.286;2022-09-17T17:53:09;5.70;;;1.33;;
55539;SDS011;41384;51.418;7.286;2022-09-17T17:55:35;1.33;;;0.68;;
55539;SDS011;41384;51.418;7.286;2022-09-17T17:58:00;4.03;;;0.70;;
55539;SDS011;41384;51.418;7.286;2022-09-17T18:00:25;5.32;;;1.80;;
55539;SDS011;41384;51.418;7.286;2022-09-17T18:02:50;2.67;;;1.00;;
55539;SDS011;41384;51.418;7.286;2022-09-17T18:05:16;4.70;;;1.45;;
55539;SDS011;41384;51.418;7.286;2022-09-17T18:07:41;3.00;;;1.00;;